sensor_id;sensor_type;location;lat;lon;timestamp;P1;durP1;ratioP1;P2;durP2;ratioP2
18677;SDS011;9469;51.114;13.914;2022-11-21T00:00:32;54.53;;;25.23;;
18677;SDS011;9469;51.114;13.914;2022-11-21T00:05:41;57.87;;;29.17;;
18677;SDS011;9469;51.114;13.914;2022-11-21T00:10:47;62.60;;;31.10;;
18677;SDS011;9469;51.114;13.914;2022-11-21T00:15:52;59.23;;;29.97;;
18677;SDS011;9469;51.114;13.914;2022-11-21T00:21:01;67.30;;;32.30;;
18677;SDS011;9469;51.114;13.914;2022-11-21T00:26:08;59.43;;;30.27;;
18677;SDS011;9469;51.114;13.914;2022-11-21T00:31:17;59.40;;;32.03;;
18677;SDS011;9469;51.114;13.914;2022-11-21T00:36:26;61.30;;;31.53;;
18677;SDS011;9469;51.114;13.914;2022-11-21T00:41:31;55.30;;;28.77;;
18677;SDS011;9469;51.114;13.914;2022-11-21T00:46:36;57.83;;;31.13;;
18677;SDS011;9469;51.114;13.914;2022-11-21T00:51:44;63.93;;;30.73;;
18677;SDS011;9469;51.114;13.914;2022-11-21T00:56:49;52.50;;;27.53;;
18677;SDS011;9469;51.114;13.914;2022-11-21T01:01:54;55.43;;;27.60;;
18677;SDS011;9469;51.114;13.914;2022-11-21T01:07:01;54.97;;;28.13;;
18677;SDS011;9469;51.114;13.914;2022-11-21T01:12:07;55.90;;;27.80;;
18677;SDS011;9469;51.114;13.914;2022-11-21T01:17:12;50.20;;;28.07;;
18677;SDS011;9469;51.114;13.914;2022-11-21T01:22:20;49.83;;;25.83;;
18677;SDS011;9469;51.114;13.914;2022-11-21T01:27:24;51.10;;;25.30;;
18677;SDS011;9469;51.114;13.914;2022-11-21T01:32:29;50.63;;;25.40;;
18677;SDS011;9469;51.114;13.914;2022-11-21T01:37:37;52.63;;;27.47;;
18677;SDS011;9469;51.114;13.914;2022-11-21T01:42:51;48.90;;;23.93;;
18677;SDS011;9469;51.114;13.914;2022-11-21T01:47:57;45.80;;;22.87;;
18677;SDS011;9469;51.114;13.914;2022-11-21T01:53:04;42.50;;;21.23;;
18677;SDS011;9469;51.114;13.914;2022-11-21T01:58:10;42.73;;;22.17;;
18677;SDS011;9469;51.114;13.914;2022-11-21T02:03:17;45.53;;;21.90;;
18677;SDS011;9469;51.114;13.914;2022-11-21T02:08:30;42.47;;;22.07;;
18677;SDS011;9469;51.114;13.914;2022-11-21T02:13:36;37.33;;;19.83;;
18677;SDS011;9469;51.114;13.914;2022-11-21T02:18:41;39.23;;;21.10;;
18677;SDS011;9469;51.114;13.914;2022-11-21T02:23:51;39.90;;;20.87;;
18677;SDS011;9469;51.114;13.914;2022-11-21T02:29:04;46.70;;;22.13;;
18677;SDS011;9469;51.114;13.914;2022-11-21T02:34:09;39.97;;;23.00;;
18677;SDS011;9469;51.114;13.914;2022-11-21T02:39:15;42.67;;;22.27;;
18677;SDS011;9469;51.114;13.914;2022-11-21T02:44:28;41.67;;;22.93;;
18677;SDS011;9469;51.114;13.914;2022-11-21T02:49:41;44.43;;;23.13;;
18677;SDS011;9469;51.114;13.914;2022-11-21T02:54:52;42.03;;;21.80;;
18677;SDS011;9469;51.114;13.914;2022-11-21T03:00:00;44.27;;;23.47;;
18677;SDS011;9469;51.114;13.914;2022-11-21T03:05:06;43.47;;;21.83;;
18677;SDS011;9469;51.114;13.914;2022-11-21T03:10:13;50.80;;;24.93;;
18677;SDS011;9469;51.114;13.914;2022-11-21T03:15:21;39.27;;;22.83;;
18677;SDS011;9469;51.114;13.914;2022-11-21T03:20:27;39.23;;;21.67;;
18677;SDS011;9469;51.114;13.914;2022-11-21T03:25:32;37.93;;;21.30;;
18677;SDS011;9469;51.114;13.914;2022-11-21T03:30:40;40.63;;;21.27;;
18677;SDS011;9469;51.114;13.914;2022-11-21T03:35:46;40.27;;;21.83;;
18677;SDS011;9469;51.114;13.914;2022-11-21T03:40:51;35.37;;;20.47;;
18677;SDS011;9469;51.114;13.914;2022-11-21T03:45:59;35.70;;;19.67;;
18677;SDS011;9469;51.114;13.914;2022-11-21T03:51:04;28.40;;;17.50;;
18677;SDS011;9469;51.114;13.914;2022-11-21T03:56:09;28.13;;;16.57;;
18677;SDS011;9469;51.114;13.914;2022-11-21T04:01:16;27.13;;;16.10;;
18677;SDS011;9469;51.114;13.914;2022-11-21T04:06:22;30.70;;;16.10;;
18677;SDS011;9469;51.114;13.914;2022-11-21T04:11:28;28.53;;;16.10;;
18677;SDS011;9469;51.114;13.914;2022-11-21T04:16:35;23.77;;;14.10;;
18677;SDS011;9469;51.114;13.914;2022-11-21T04:21:42;25.10;;;14.53;;
18677;SDS011;9469;51.114;13.914;2022-11-21T04:26:47;24.23;;;14.23;;
18677;SDS011;9469;51.114;13.914;2022-11-21T04:31:54;26.93;;;15.07;;
18677;SDS011;9469;51.114;13.914;2022-11-21T04:37:00;25.50;;;14.80;;
18677;SDS011;9469;51.114;13.914;2022-11-21T04:42:11;28.70;;;15.63;;
18677;SDS011;9469;51.114;13.914;2022-11-21T04:47:19;30.13;;;16.77;;
18677;SDS011;9469;51.114;13.914;2022-11-21T04:52:26;24.10;;;15.47;;
18677;SDS011;9469;51.114;13.914;2022-11-21T04:57:35;29.00;;;17.43;;
18677;SDS011;9469;51.114;13.914;2022-11-21T05:02:43;29.40;;;16.77;;
18677;SDS011;9469;51.114;13.914;2022-11-21T05:07:49;28.63;;;17.43;;
18677;SDS011;9469;51.114;13.914;2022-11-21T05:12:55;28.57;;;16.27;;
18677;SDS011;9469;51.114;13.914;2022-11-21T05:18:16;25.87;;;15.13;;
18677;SDS011;9469;51.114;13.914;2022-11-21T05:23:22;24.30;;;14.90;;
18677;SDS011;9469;51.114;13.914;2022-11-21T05:28:29;28.30;;;16.07;;
18677;SDS011;9469;51.114;13.914;2022-11-21T05:33:37;32.90;;;17.47;;
18677;SDS011;9469;51.114;13.914;2022-11-21T05:38:47;25.17;;;14.20;;
18677;SDS011;9469;51.114;13.914;2022-11-21T05:43:55;25.13;;;15.80;;
18677;SDS011;9469;51.114;13.914;2022-11-21T05:49:04;21.33;;;13.63;;
18677;SDS011;9469;51.114;13.914;2022-11-21T05:54:12;27.67;;;14.37;;
18677;SDS011;9469;51.114;13.914;2022-11-21T05:59:18;21.70;;;13.37;;
18677;SDS011;9469;51.114;13.914;2022-11-21T06:04:27;22.70;;;14.90;;
18677;SDS011;9469;51.114;13.914;2022-11-21T06:09:33;25.63;;;14.33;;
18677;SDS011;9469;51.114;13.914;2022-11-21T06:14:41;27.33;;;14.90;;
18677;SDS011;9469;51.114;13.914;2022-11-21T06:19:48;20.30;;;13.43;;
18677;SDS011;9469;51.114;13.914;2022-11-21T06:25:00;22.10;;;13.10;;
18677;SDS011;9469;51.114;13.914;2022-11-21T06:30:05;25.80;;;13.77;;
18677;SDS011;9469;51.114;13.914;2022-11-21T06:35:14;37.20;;;19.47;;
18677;SDS011;9469;51.114;13.914;2022-11-21T06:40:20;20.23;;;12.80;;
18677;SDS011;9469;51.114;13.914;2022-11-21T06:45:25;20.87;;;12.00;;
18677;SDS011;9469;51.114;13.914;2022-11-21T06:50:34;14.03;;;8.70;;
18677;SDS011;9469;51.114;13.914;2022-11-21T06:55:42;11.50;;;7.27;;
18677;SDS011;9469;51.114;13.914;2022-11-21T07:00:48;10.20;;;7.03;;
18677;SDS011;9469;51.114;13.914;2022-11-21T07:05:58;9.87;;;7.43;;
18677;SDS011;9469;51.114;13.914;2022-11-21T07:11:05;11.70;;;6.97;;
18677;SDS011;9469;51.114;13.914;2022-11-21T07:16:27;11.37;;;7.27;;
18677;SDS011;9469;51.114;13.914;2022-11-21T07:21:36;11.80;;;7.90;;
18677;SDS011;9469;51.114;13.914;2022-11-21T07:26:43;14.73;;;7.80;;
18677;SDS011;9469;51.114;13.914;2022-11-21T07:31:50;11.57;;;7.23;;
18677;SDS011;9469;51.114;13.914;2022-11-21T07:36:59;12.83;;;7.73;;
18677;SDS011;9469;51.114;13.914;2022-11-21T07:42:06;11.83;;;8.23;;
18677;SDS011;9469;51.114;13.914;2022-11-21T07:47:13;13.40;;;9.33;;
18677;SDS011;9469;51.114;13.914;2022-11-21T07:52:22;16.23;;;9.63;;
18677;SDS011;9469;51.114;13.914;2022-11-21T07:57:27;20.37;;;11.40;;
18677;SDS011;9469;51.114;13.914;2022-11-21T08:02:41;29.63;;;12.97;;
18677;SDS011;9469;51.114;13.914;2022-11-21T08:08:08;26.27;;;16.07;;
18677;SDS011;9469;51.114;13.914;2022-11-21T08:13:14;37.17;;;17.23;;
18677;SDS011;9469;51.114;13.914;2022-11-21T08:18:22;30.97;;;17.87;;
18677;SDS011;9469;51.114;13.914;2022-11-21T08:23:38;28.63;;;16.83;;
18677;SDS011;9469;51.114;13.914;2022-11-21T08:28:51;31.23;;;18.30;;
18677;SDS011;9469;51.114;13.914;2022-11-21T08:34:06;39.87;;;19.83;;
18677;SDS011;9469;51.114;13.914;2022-11-21T08:39:17;65.93;;;34.90;;
18677;SDS011;9469;51.114;13.914;2022-11-21T08:44:25;39.37;;;19.80;;
18677;SDS011;9469;51.114;13.914;2022-11-21T08:49:30;45.03;;;20.13;;
18677;SDS011;9469;51.114;13.914;2022-11-21T08:54:39;59.03;;;20.33;;
18677;SDS011;9469;51.114;13.914;2022-11-21T08:59:46;31.03;;;17.33;;
18677;SDS011;9469;51.114;13.914;2022-11-21T09:04:54;33.20;;;18.50;;
18677;SDS011;9469;51.114;13.914;2022-11-21T09:10:02;35.67;;;18.73;;
18677;SDS011;9469;51.114;13.914;2022-11-21T09:15:08;39.90;;;20.10;;
18677;SDS011;9469;51.114;13.914;2022-11-21T09:20:31;33.47;;;18.73;;
18677;SDS011;9469;51.114;13.914;2022-11-21T09:25:46;36.87;;;20.53;;
18677;SDS011;9469;51.114;13.914;2022-11-21T09:30:52;30.40;;;18.57;;
18677;SDS011;9469;51.114;13.914;2022-11-21T09:35:59;40.10;;;20.80;;
18677;SDS011;9469;51.114;13.914;2022-11-21T09:41:15;40.40;;;26.42;;
18677;SDS011;9469;51.114;13.914;2022-11-21T09:46:44;40.83;;;22.90;;
18677;SDS011;9469;51.114;13.914;2022-11-21T09:51:51;39.90;;;22.27;;
18677;SDS011;9469;51.114;13.914;2022-11-21T09:57:03;41.20;;;22.07;;
18677;SDS011;9469;51.114;13.914;2022-11-21T10:02:10;37.97;;;20.47;;
18677;SDS011;9469;51.114;13.914;2022-11-21T10:07:20;40.00;;;20.10;;
18677;SDS011;9469;51.114;13.914;2022-11-21T10:12:34;39.63;;;20.47;;
18677;SDS011;9469;51.114;13.914;2022-11-21T10:17:52;44.27;;;20.47;;
18677;SDS011;9469;51.114;13.914;2022-11-21T10:23:19;41.13;;;22.00;;
18677;SDS011;9469;51.114;13.914;2022-11-21T10:28:40;58.70;;;21.83;;
18677;SDS011;9469;51.114;13.914;2022-11-21T10:33:55;41.93;;;21.03;;
18677;SDS011;9469;51.114;13.914;2022-11-21T10:39:04;41.73;;;20.83;;
18677;SDS011;9469;51.114;13.914;2022-11-21T10:44:22;42.13;;;19.70;;
18677;SDS011;9469;51.114;13.914;2022-11-21T10:49:41;43.67;;;20.00;;
18677;SDS011;9469;51.114;13.914;2022-11-21T11:00:21;47.03;;;20.40;;
18677;SDS011;9469;51.114;13.914;2022-11-21T11:05:28;41.17;;;20.17;;
18677;SDS011;9469;51.114;13.914;2022-11-21T11:10:35;42.07;;;19.47;;
18677;SDS011;9469;51.114;13.914;2022-11-21T11:15:54;36.73;;;20.30;;
18677;SDS011;9469;51.114;13.914;2022-11-21T11:21:10;41.47;;;21.03;;
18677;SDS011;9469;51.114;13.914;2022-11-21T11:26:23;38.13;;;21.73;;
18677;SDS011;9469;51.114;13.914;2022-11-21T11:31:41;38.37;;;21.70;;
18677;SDS011;9469;51.114;13.914;2022-11-21T11:36:52;42.37;;;22.50;;
18677;SDS011;9469;51.114;13.914;2022-11-21T11:48:06;29.63;;;17.80;;
18677;SDS011;9469;51.114;13.914;2022-11-21T11:53:14;28.23;;;16.67;;
18677;SDS011;9469;51.114;13.914;2022-11-21T11:58:23;24.03;;;15.40;;
18677;SDS011;9469;51.114;13.914;2022-11-21T12:03:39;24.83;;;15.33;;
18677;SDS011;9469;51.114;13.914;2022-11-21T12:08:50;24.90;;;15.40;;
18677;SDS011;9469;51.114;13.914;2022-11-21T12:14:01;31.73;;;18.03;;
18677;SDS011;9469;51.114;13.914;2022-11-21T12:19:37;28.23;;;17.77;;
18677;SDS011;9469;51.114;13.914;2022-11-21T12:24:47;27.67;;;16.57;;
18677;SDS011;9469;51.114;13.914;2022-11-21T12:30:08;27.20;;;15.97;;
18677;SDS011;9469;51.114;13.914;2022-11-21T12:35:41;24.43;;;16.40;;
18677;SDS011;9469;51.114;13.914;2022-11-21T12:41:19;27.97;;;15.70;;
18677;SDS011;9469;51.114;13.914;2022-11-21T12:52:17;25.20;;;15.77;;
18677;SDS011;9469;51.114;13.914;2022-11-21T12:57:55;23.60;;;14.93;;
18677;SDS011;9469;51.114;13.914;2022-11-21T13:03:20;25.47;;;15.63;;
18677;SDS011;9469;51.114;13.914;2022-11-21T13:08:36;24.30;;;14.60;;
18677;SDS011;9469;51.114;13.914;2022-11-21T13:13:43;27.27;;;17.00;;
18677;SDS011;9469;51.114;13.914;2022-11-21T13:18:51;31.17;;;17.13;;
18677;SDS011;9469;51.114;13.914;2022-11-21T13:24:00;33.90;;;19.73;;
18677;SDS011;9469;51.114;13.914;2022-11-21T13:29:06;21.60;;;13.93;;
18677;SDS011;9469;51.114;13.914;2022-11-21T13:39:40;22.13;;;13.13;;
18677;SDS011;9469;51.114;13.914;2022-11-21T13:44:48;20.83;;;13.43;;
18677;SDS011;9469;51.114;13.914;2022-11-21T13:49:58;20.33;;;12.87;;
18677;SDS011;9469;51.114;13.914;2022-11-21T13:55:30;18.17;;;12.63;;
18677;SDS011;9469;51.114;13.914;2022-11-21T14:06:31;19.17;;;12.73;;
18677;SDS011;9469;51.114;13.914;2022-11-21T14:11:42;18.80;;;11.87;;
18677;SDS011;9469;51.114;13.914;2022-11-21T14:16:56;18.67;;;12.67;;
18677;SDS011;9469;51.114;13.914;2022-11-21T14:22:20;23.40;;;13.80;;
18677;SDS011;9469;51.114;13.914;2022-11-21T14:27:39;22.73;;;14.77;;
18677;SDS011;9469;51.114;13.914;2022-11-21T14:32:46;23.63;;;15.07;;
18677;SDS011;9469;51.114;13.914;2022-11-21T14:37:55;26.73;;;15.17;;
18677;SDS011;9469;51.114;13.914;2022-11-21T14:43:25;24.57;;;14.67;;
18677;SDS011;9469;51.114;13.914;2022-11-21T14:48:34;24.70;;;14.17;;
18677;SDS011;9469;51.114;13.914;2022-11-21T14:53:39;26.40;;;16.17;;
18677;SDS011;9469;51.114;13.914;2022-11-21T14:58:52;25.00;;;15.20;;
18677;SDS011;9469;51.114;13.914;2022-11-21T15:04:00;23.90;;;15.80;;
18677;SDS011;9469;51.114;13.914;2022-11-21T15:09:09;28.33;;;15.57;;
18677;SDS011;9469;51.114;13.914;2022-11-21T15:14:40;36.13;;;17.30;;
18677;SDS011;9469;51.114;13.914;2022-11-21T15:20:05;32.67;;;18.40;;
18677;SDS011;9469;51.114;13.914;2022-11-21T15:25:25;40.97;;;20.50;;
18677;SDS011;9469;51.114;13.914;2022-11-21T15:30:34;38.57;;;20.70;;
18677;SDS011;9469;51.114;13.914;2022-11-21T15:35:42;36.23;;;21.00;;
18677;SDS011;9469;51.114;13.914;2022-11-21T15:40:56;40.37;;;20.87;;
18677;SDS011;9469;51.114;13.914;2022-11-21T15:46:39;37.43;;;21.63;;
18677;SDS011;9469;51.114;13.914;2022-11-21T15:52:10;40.23;;;23.30;;
18677;SDS011;9469;51.114;13.914;2022-11-21T15:57:23;42.03;;;23.67;;
18677;SDS011;9469;51.114;13.914;2022-11-21T16:08:27;44.17;;;23.53;;
18677;SDS011;9469;51.114;13.914;2022-11-21T16:13:59;50.13;;;24.83;;
18677;SDS011;9469;51.114;13.914;2022-11-21T16:19:53;42.80;;;23.47;;
18677;SDS011;9469;51.114;13.914;2022-11-21T16:25:16;45.57;;;23.50;;
18677;SDS011;9469;51.114;13.914;2022-11-21T16:30:37;35.27;;;20.43;;
18677;SDS011;9469;51.114;13.914;2022-11-21T16:35:50;40.50;;;22.07;;
18677;SDS011;9469;51.114;13.914;2022-11-21T16:40:59;40.77;;;21.23;;
18677;SDS011;9469;51.114;13.914;2022-11-21T16:46:07;35.67;;;21.33;;
18677;SDS011;9469;51.114;13.914;2022-11-21T16:51:17;35.73;;;19.03;;
18677;SDS011;9469;51.114;13.914;2022-11-21T16:56:23;35.97;;;19.20;;
18677;SDS011;9469;51.114;13.914;2022-11-21T17:01:31;36.90;;;21.17;;
18677;SDS011;9469;51.114;13.914;2022-11-21T17:06:40;35.60;;;20.63;;
18677;SDS011;9469;51.114;13.914;2022-11-21T17:11:47;34.10;;;19.07;;
18677;SDS011;9469;51.114;13.914;2022-11-21T17:16:54;36.67;;;20.33;;
18677;SDS011;9469;51.114;13.914;2022-11-21T17:22:04;34.77;;;19.80;;
18677;SDS011;9469;51.114;13.914;2022-11-21T17:27:12;32.43;;;19.07;;
18677;SDS011;9469;51.114;13.914;2022-11-21T17:32:19;35.23;;;19.20;;
18677;SDS011;9469;51.114;13.914;2022-11-21T17:37:28;37.43;;;21.33;;
18677;SDS011;9469;51.114;13.914;2022-11-21T17:42:33;36.37;;;19.67;;
18677;SDS011;9469;51.114;13.914;2022-11-21T17:47:38;34.60;;;19.63;;
18677;SDS011;9469;51.114;13.914;2022-11-21T17:52:47;28.13;;;17.60;;
18677;SDS011;9469;51.114;13.914;2022-11-21T17:57:53;30.57;;;17.27;;
18677;SDS011;9469;51.114;13.914;2022-11-21T18:02:58;32.17;;;18.87;;
18677;SDS011;9469;51.114;13.914;2022-11-21T18:08:05;29.00;;;16.80;;
18677;SDS011;9469;51.114;13.914;2022-11-21T18:13:11;33.67;;;19.27;;
18677;SDS011;9469;51.114;13.914;2022-11-21T18:18:16;31.47;;;19.10;;
18677;SDS011;9469;51.114;13.914;2022-11-21T18:23:24;33.90;;;19.00;;
18677;SDS011;9469;51.114;13.914;2022-11-21T18:28:31;33.83;;;18.20;;
18677;SDS011;9469;51.114;13.914;2022-11-21T18:33:37;30.43;;;18.57;;
18677;SDS011;9469;51.114;13.914;2022-11-21T18:38:45;32.10;;;18.33;;
18677;SDS011;9469;51.114;13.914;2022-11-21T18:44:03;33.70;;;18.53;;
18677;SDS011;9469;51.114;13.914;2022-11-21T18:49:10;31.13;;;16.17;;
18677;SDS011;9469;51.114;13.914;2022-11-21T18:54:22;31.40;;;18.40;;
18677;SDS011;9469;51.114;13.914;2022-11-21T18:59:27;29.93;;;18.40;;
18677;SDS011;9469;51.114;13.914;2022-11-21T19:04:35;28.27;;;16.27;;
18677;SDS011;9469;51.114;13.914;2022-11-21T19:09:43;32.43;;;18.47;;
18677;SDS011;9469;51.114;13.914;2022-11-21T19:14:48;32.23;;;19.13;;
18677;SDS011;9469;51.114;13.914;2022-11-21T19:19:56;24.87;;;16.80;;
18677;SDS011;9469;51.114;13.914;2022-11-21T19:25:05;28.80;;;17.13;;
18677;SDS011;9469;51.114;13.914;2022-11-21T19:30:12;25.13;;;16.07;;
18677;SDS011;9469;51.114;13.914;2022-11-21T19:35:18;25.90;;;15.93;;
18677;SDS011;9469;51.114;13.914;2022-11-21T19:40:27;25.07;;;16.13;;
18677;SDS011;9469;51.114;13.914;2022-11-21T19:45:52;30.70;;;18.67;;
18677;SDS011;9469;51.114;13.914;2022-11-21T19:50:59;32.27;;;18.90;;
18677;SDS011;9469;51.114;13.914;2022-11-21T19:56:09;34.07;;;19.97;;
18677;SDS011;9469;51.114;13.914;2022-11-21T20:01:18;31.40;;;18.10;;
18677;SDS011;9469;51.114;13.914;2022-11-21T20:06:25;34.13;;;18.57;;
18677;SDS011;9469;51.114;13.914;2022-11-21T20:11:34;28.13;;;17.57;;
18677;SDS011;9469;51.114;13.914;2022-11-21T20:16:43;32.47;;;19.63;;
18677;SDS011;9469;51.114;13.914;2022-11-21T20:21:50;39.97;;;22.17;;
18677;SDS011;9469;51.114;13.914;2022-11-21T20:26:59;29.57;;;18.23;;
18677;SDS011;9469;51.114;13.914;2022-11-21T20:32:04;30.57;;;17.17;;
18677;SDS011;9469;51.114;13.914;2022-11-21T20:37:09;23.23;;;15.40;;
18677;SDS011;9469;51.114;13.914;2022-11-21T20:42:17;23.40;;;13.87;;
18677;SDS011;9469;51.114;13.914;2022-11-21T20:47:22;22.87;;;14.30;;
18677;SDS011;9469;51.114;13.914;2022-11-21T20:52:27;21.70;;;13.53;;
18677;SDS011;9469;51.114;13.914;2022-11-21T20:57:55;22.43;;;13.53;;
18677;SDS011;9469;51.114;13.914;2022-11-21T21:03:03;22.90;;;14.27;;
18677;SDS011;9469;51.114;13.914;2022-11-21T21:08:08;19.53;;;13.83;;
18677;SDS011;9469;51.114;13.914;2022-11-21T21:13:16;23.23;;;14.60;;
18677;SDS011;9469;51.114;13.914;2022-11-21T21:18:21;20.13;;;13.10;;
18677;SDS011;9469;51.114;13.914;2022-11-21T21:23:26;23.07;;;12.83;;
18677;SDS011;9469;51.114;13.914;2022-11-21T21:28:34;23.30;;;13.47;;
18677;SDS011;9469;51.114;13.914;2022-11-21T21:33:39;18.90;;;13.20;;
18677;SDS011;9469;51.114;13.914;2022-11-21T21:38:48;21.47;;;13.87;;
18677;SDS011;9469;51.114;13.914;2022-11-21T21:43:57;23.77;;;13.90;;
18677;SDS011;9469;51.114;13.914;2022-11-21T21:49:02;21.27;;;12.37;;
18677;SDS011;9469;51.114;13.914;2022-11-21T21:54:12;20.70;;;12.37;;
18677;SDS011;9469;51.114;13.914;2022-11-21T21:59:21;16.80;;;10.60;;
18677;SDS011;9469;51.114;13.914;2022-11-21T22:04:26;14.43;;;9.53;;
18677;SDS011;9469;51.114;13.914;2022-11-21T22:09:33;19.70;;;12.93;;
18677;SDS011;9469;51.114;13.914;2022-11-21T22:14:41;18.07;;;12.17;;
18677;SDS011;9469;51.114;13.914;2022-11-21T22:19:46;18.40;;;10.87;;
18677;SDS011;9469;51.114;13.914;2022-11-21T22:24:50;15.33;;;11.67;;
18677;SDS011;9469;51.114;13.914;2022-11-21T22:29:58;18.10;;;11.93;;
18677;SDS011;9469;51.114;13.914;2022-11-21T22:35:03;19.00;;;12.47;;
18677;SDS011;9469;51.114;13.914;2022-11-21T22:40:10;17.80;;;12.10;;
18677;SDS011;9469;51.114;13.914;2022-11-21T22:45:18;16.30;;;10.30;;
18677;SDS011;9469;51.114;13.914;2022-11-21T22:50:24;19.17;;;11.33;;
18677;SDS011;9469;51.114;13.914;2022-11-21T22:55:29;19.50;;;13.00;;
18677;SDS011;9469;51.114;13.914;2022-11-21T23:00:36;19.03;;;13.43;;
18677;SDS011;9469;51.114;13.914;2022-11-21T23:05:41;15.63;;;11.30;;
18677;SDS011;9469;51.114;13.914;2022-11-21T23:10:46;17.63;;;12.63;;
18677;SDS011;9469;51.114;13.914;2022-11-21T23:15:54;20.97;;;14.07;;
18677;SDS011;9469;51.114;13.914;2022-11-21T23:21:02;18.33;;;12.73;;
18677;SDS011;9469;51.114;13.914;2022-11-21T23:26:08;21.47;;;15.17;;
18677;SDS011;9469;51.114;13.914;2022-11-21T23:31:16;19.37;;;13.23;;
18677;SDS011;9469;51.114;13.914;2022-11-21T23:36:21;20.53;;;12.73;;
18677;SDS011;9469;51.114;13.914;2022-11-21T23:41:26;19.27;;;13.87;;
18677;SDS011;9469;51.114;13.914;2022-11-21T23:46:34;19.33;;;11.97;;
18677;SDS011;9469;51.114;13.914;2022-11-21T23:51:39;19.47;;;13.53;;
18677;SDS011;9469;51.114;13.914;2022-11-21T23:56:44;21.60;;;14.50;;
